createdAt,value
2022-11-23T00:02:38.218Z,87.07
2022-11-23T00:07:39.438Z,87.25
2022-11-23T00:12:48.990Z,87.42
2022-11-23T00:17:50.095Z,87.53
2022-11-23T00:22:51.230Z,87.65
2022-11-23T00:27:52.346Z,87.78
2022-11-23T00:32:54.214Z,88.01
2022-11-23T00:37:55.304Z,88.26
2022-11-23T00:42:56.644Z,88.54
2022-11-23T00:48:04.075Z,88.76
2022-11-23T00:53:05.157Z,88.96
2022-11-23T00:58:06.577Z,89.22
2022-11-23T01:03:08.044Z,89.29
2022-11-23T01:08:09.408Z,89.45
2022-11-23T01:13:10.482Z,89.62
2022-11-23T01:18:11.724Z,89.72
2022-11-23T01:23:12.852Z,89.87
2022-11-23T01:28:16.078Z,90.02
2022-11-23T01:33:17.190Z,90.11
2022-11-23T01:38:18.644Z,90.13
2022-11-23T01:43:19.906Z,90.10
2022-11-23T01:48:44.665Z,90.10
2022-11-23T01:53:48.428Z,90.10
2022-11-23T01:58:52.819Z,90.11
2022-11-23T02:03:55.909Z,90.05
2022-11-23T02:08:57.242Z,89.98
2022-11-23T02:13:59.703Z,89.95
2022-11-23T02:19:00.862Z,89.92
2022-11-23T02:24:17.325Z,89.88
2022-11-23T02:29:23.283Z,89.85
2022-11-23T02:34:26.236Z,89.82
2022-11-23T02:39:33.111Z,89.69
2022-11-23T02:44:37.412Z,89.57
2022-11-23T02:49:41.999Z,89.55
2022-11-23T02:54:43.168Z,89.56
2022-11-23T02:59:44.243Z,89.57
2022-11-23T03:04:45.878Z,89.67
2022-11-23T03:09:46.984Z,89.72
2022-11-23T03:14:48.234Z,89.88
2022-11-23T03:19:50.807Z,89.98
2022-11-23T03:24:52.325Z,90.00
2022-11-23T03:29:54.022Z,90.04
2022-11-23T03:34:55.559Z,90.08
2022-11-23T03:39:57.036Z,90.12
2022-11-23T03:44:58.198Z,90.13
2022-11-23T03:49:59.672Z,90.08
2022-11-23T03:55:00.952Z,90.04
2022-11-23T04:00:03.216Z,90.00
2022-11-23T04:05:14.508Z,89.93
2022-11-23T04:10:38.614Z,89.96
2022-11-23T04:15:48.015Z,90.07
2022-11-23T04:20:49.323Z,90.12
2022-11-23T04:25:50.885Z,90.19
2022-11-23T04:30:52.669Z,90.25
2022-11-23T04:35:54.030Z,90.20
2022-11-23T04:40:55.189Z,90.13
2022-11-23T04:45:56.456Z,90.04
2022-11-23T04:51:02.599Z,90.01
2022-11-23T04:56:08.765Z,89.95
2022-11-23T05:01:12.460Z,89.84
2022-11-23T05:06:31.256Z,89.79
2022-11-23T05:11:33.594Z,89.78
2022-11-23T05:16:35.573Z,89.65
2022-11-23T05:21:37.451Z,89.49
2022-11-23T05:26:39.533Z,89.43
2022-11-23T05:31:40.901Z,89.34
2022-11-23T05:36:42.561Z,89.28
2022-11-23T05:41:44.362Z,89.25
2022-11-23T05:46:58.098Z,89.14
2022-11-23T05:52:00.904Z,89.15
2022-11-23T05:57:02.897Z,89.15
2022-11-23T06:02:18.275Z,89.20
2022-11-23T06:07:22.389Z,89.32
2022-11-23T06:12:35.346Z,89.39
2022-11-23T06:17:38.139Z,89.46
2022-11-23T06:22:43.192Z,89.64
2022-11-23T06:27:56.607Z,89.70
2022-11-23T06:33:03.941Z,89.71
2022-11-23T06:38:06.640Z,89.78
2022-11-23T06:43:08.514Z,89.87
2022-11-23T06:48:13.984Z,89.89
2022-11-23T06:53:18.264Z,89.94
2022-11-23T06:58:26.950Z,89.89
2022-11-23T07:03:28.464Z,89.92
2022-11-23T07:08:43.040Z,89.95
2022-11-23T07:14:04.428Z,89.85
2022-11-23T07:19:06.000Z,89.87
2022-11-23T07:24:07.369Z,89.97
2022-11-23T07:29:09.759Z,90.10
2022-11-23T07:34:11.294Z,90.16
2022-11-23T07:39:12.716Z,90.22
2022-11-23T07:44:14.362Z,90.29
2022-11-23T07:49:15.418Z,90.22
2022-11-23T07:54:20.757Z,90.11
2022-11-23T07:59:24.754Z,90.09
2022-11-23T08:04:26.578Z,90.08
2022-11-23T08:09:27.743Z,90.13
2022-11-23T08:14:28.926Z,90.29
2022-11-23T08:19:30.076Z,90.31
2022-11-23T08:24:31.519Z,90.12
2022-11-23T08:29:33.104Z,89.77
2022-11-23T08:34:34.489Z,89.66
2022-11-23T08:39:36.060Z,89.73
2022-11-23T08:44:37.402Z,89.86
2022-11-23T08:49:38.665Z,89.81
2022-11-23T08:54:39.824Z,89.68
2022-11-23T08:59:40.928Z,89.65
2022-11-23T09:04:42.760Z,89.20
2022-11-23T09:09:43.861Z,89.08
2022-11-23T09:14:45.080Z,89.26
2022-11-23T09:19:46.243Z,89.08
2022-11-23T09:24:47.440Z,88.85
2022-11-23T09:29:49.487Z,88.76
2022-11-23T09:34:50.607Z,88.81
2022-11-23T09:39:51.679Z,88.68
2022-11-23T09:45:13.683Z,88.39
2022-11-23T09:50:42.384Z,88.19
2022-11-23T09:55:46.628Z,88.47
2022-11-23T10:00:53.335Z,88.18
2022-11-23T10:06:19.259Z,87.82
2022-11-23T10:11:49.693Z,88.05
2022-11-23T10:17:21.856Z,88.07
2022-11-23T10:22:56.908Z,87.78
2022-11-23T10:28:02.579Z,87.07
2022-11-23T10:33:26.165Z,86.84
2022-11-23T10:38:27.835Z,86.71
2022-11-23T10:43:44.663Z,86.72
2022-11-23T10:48:46.789Z,86.75
2022-11-23T10:53:55.327Z,86.52
2022-11-23T10:58:57.569Z,86.33
2022-11-23T11:04:05.821Z,86.12
2022-11-23T11:09:19.740Z,86.29
2022-11-23T11:14:22.909Z,85.93
2022-11-23T11:19:35.564Z,85.26
2022-11-23T11:24:42.856Z,84.66
2022-11-23T11:29:43.897Z,84.35
2022-11-23T11:34:51.425Z,82.90
2022-11-23T11:40:05.308Z,80.86
2022-11-23T11:45:23.939Z,79.84
2022-11-23T11:50:33.812Z,79.55
2022-11-23T11:55:55.305Z,79.16
2022-11-23T12:01:08.225Z,79.72
2022-11-23T12:06:28.153Z,79.51
2022-11-23T12:11:29.471Z,78.67
2022-11-23T12:16:30.447Z,76.88
2022-11-23T12:22:20.467Z,76.02
2022-11-23T12:27:28.380Z,75.74
2022-11-23T12:33:00.799Z,75.31
2022-11-23T12:38:29.141Z,74.77
2022-11-23T12:43:51.934Z,76.45
2022-11-23T12:49:05.895Z,76.32
2022-11-23T12:54:20.468Z,75.20
2022-11-23T12:59:25.012Z,76.77
2022-11-23T13:04:49.430Z,76.14
2022-11-23T13:10:25.299Z,75.92
2022-11-23T13:15:35.579Z,76.85
2022-11-23T13:20:55.876Z,76.89
2022-11-23T13:26:21.685Z,77.11
2022-11-23T13:31:27.002Z,77.10
2022-11-23T13:37:10.610Z,77.55
2022-11-23T13:42:00.862Z,78.48
2022-11-23T13:47:03.736Z,78.14
2022-11-23T13:52:19.764Z,77.67
2022-11-23T13:57:21.318Z,77.53
2022-11-23T14:02:26.541Z,77.36
2022-11-23T14:07:42.754Z,76.94
2022-11-23T14:12:49.577Z,77.65
2022-11-23T14:18:09.570Z,77.70
2022-11-23T14:23:38.788Z,77.79
2022-11-23T14:29:05.276Z,77.53
2022-11-23T14:34:32.273Z,77.13
2022-11-23T14:39:55.595Z,76.81
2022-11-23T14:45:04.120Z,76.96
2022-11-23T14:50:05.897Z,77.02
2022-11-23T14:55:17.044Z,76.80
2022-11-23T15:00:30.344Z,76.89
2022-11-23T15:05:39.229Z,77.36
2022-11-23T15:10:57.034Z,77.38
2022-11-23T15:15:58.808Z,77.51
2022-11-23T15:21:13.841Z,77.52
2022-11-23T15:26:46.195Z,77.86
2022-11-23T15:31:55.268Z,77.77
2022-11-23T15:37:05.094Z,77.90
2022-11-23T15:42:06.648Z,78.39
2022-11-23T15:47:15.812Z,78.68
2022-11-23T15:52:19.120Z,78.86
2022-11-23T15:57:24.056Z,79.01
2022-11-23T16:02:28.636Z,79.14
2022-11-23T16:07:30.244Z,79.04
2022-11-23T16:12:34.925Z,79.24
2022-11-23T16:17:36.043Z,79.81
2022-11-23T16:22:41.160Z,79.76
2022-11-23T16:27:42.308Z,78.93
2022-11-23T16:32:43.460Z,78.63
2022-11-23T16:37:45.339Z,78.60
2022-11-23T16:42:51.188Z,78.93
2022-11-23T16:48:01.337Z,79.21
2022-11-23T16:53:16.144Z,79.17
2022-11-23T16:58:18.136Z,78.86
2022-11-23T17:03:20.530Z,79.13
2022-11-23T17:08:23.889Z,79.30
2022-11-23T17:13:28.336Z,79.39
2022-11-23T17:18:29.436Z,79.20
2022-11-23T17:23:30.747Z,79.07
2022-11-23T17:28:33.536Z,79.10
2022-11-23T17:33:34.663Z,78.99
2022-11-23T17:38:37.984Z,79.20
2022-11-23T17:43:39.105Z,79.76
2022-11-23T17:48:40.396Z,80.21
2022-11-23T17:53:41.563Z,80.55
2022-11-23T17:58:43.124Z,80.73
2022-11-23T18:03:45.524Z,80.43
2022-11-23T18:08:48.106Z,80.33
2022-11-23T18:13:50.091Z,80.74
2022-11-23T18:18:58.313Z,80.65
2022-11-23T18:24:04.356Z,80.36
2022-11-23T18:29:06.102Z,80.00
2022-11-23T18:34:07.427Z,80.29
2022-11-23T18:39:08.542Z,80.94
2022-11-23T18:44:09.642Z,81.62
2022-11-23T18:49:11.523Z,81.71
2022-11-23T18:54:12.651Z,81.39
2022-11-23T18:59:35.105Z,81.29
2022-11-23T19:04:35.236Z,81.56
2022-11-23T19:09:36.954Z,81.35
2022-11-23T19:14:38.113Z,81.05
2022-11-23T19:19:39.279Z,80.99
2022-11-23T19:24:40.548Z,81.15
2022-11-23T19:29:41.738Z,80.82
2022-11-23T19:34:42.958Z,80.60
2022-11-23T19:39:44.122Z,80.73
2022-11-23T19:44:45.281Z,80.97
2022-11-23T19:49:46.436Z,81.29
2022-11-23T19:54:47.599Z,81.04
2022-11-23T19:59:48.706Z,81.43
2022-11-23T20:04:51.324Z,81.62
2022-11-23T20:09:52.925Z,81.17
2022-11-23T20:14:53.981Z,81.32
2022-11-23T20:19:55.146Z,81.75
2022-11-23T20:25:03.576Z,81.82
2022-11-23T20:30:05.077Z,82.17
2022-11-23T20:35:06.714Z,82.62
2022-11-23T20:40:08.496Z,82.96
2022-11-23T20:45:09.879Z,83.23
2022-11-23T20:50:11.036Z,83.47
2022-11-23T20:55:12.279Z,83.39
2022-11-23T21:00:16.305Z,83.38
2022-11-23T21:05:18.389Z,83.45
2022-11-23T21:10:38.082Z,83.59
2022-11-23T21:15:39.651Z,83.74
2022-11-23T21:20:42.658Z,84.06
2022-11-23T21:25:44.169Z,84.30
2022-11-23T21:30:45.590Z,84.60
2022-11-23T21:35:46.752Z,84.74
2022-11-23T21:40:48.768Z,84.70
2022-11-23T21:46:00.486Z,84.94
2022-11-23T21:51:04.363Z,85.14
2022-11-23T21:56:10.979Z,85.07
2022-11-23T22:01:19.743Z,85.15
2022-11-23T22:06:21.675Z,85.53
2022-11-23T22:11:25.983Z,85.57
2022-11-23T22:16:30.932Z,85.81
2022-11-23T22:21:35.086Z,85.76
2022-11-23T22:26:36.139Z,85.72
2022-11-23T22:31:39.399Z,85.74
2022-11-23T22:36:41.450Z,85.72
2022-11-23T22:41:42.596Z,85.70
2022-11-23T22:46:44.368Z,85.70
2022-11-23T22:51:45.533Z,85.71
2022-11-23T22:56:46.722Z,85.74
2022-11-23T23:01:47.848Z,85.77
2022-11-23T23:06:50.181Z,85.74
2022-11-23T23:11:51.214Z,85.77
2022-11-23T23:16:52.448Z,85.93
2022-11-23T23:21:53.717Z,85.94
2022-11-23T23:26:55.187Z,85.67
2022-11-23T23:31:56.318Z,85.45
2022-11-23T23:36:57.537Z,85.39
2022-11-23T23:41:58.674Z,85.27
2022-11-23T23:46:59.839Z,85.12
2022-11-23T23:52:01.101Z,84.58
2022-11-23T23:57:02.250Z,84.06
